sensor_id;sensor_type;location;lat;lon;timestamp;P1;durP1;ratioP1;P2;durP2;ratioP2
74471;SDS011;62920;53.572;10.050;2023-03-29T00:02:09;6.93;;;2.33;;
74471;SDS011;62920;53.572;10.050;2023-03-29T00:04:35;8.50;;;2.40;;
74471;SDS011;62920;53.572;10.050;2023-03-29T00:07:00;5.68;;;1.80;;
74471;SDS011;62920;53.572;10.050;2023-03-29T00:09:29;4.93;;;1.90;;
74471;SDS011;62920;53.572;10.050;2023-03-29T00:11:57;7.47;;;2.75;;
74471;SDS011;62920;53.572;10.050;2023-03-29T00:14:22;5.15;;;2.00;;
74471;SDS011;62920;53.572;10.050;2023-03-29T00:16:48;5.80;;;1.90;;
74471;SDS011;62920;53.572;10.050;2023-03-29T00:19:13;5.43;;;1.90;;
74471;SDS011;62920;53.572;10.050;2023-03-29T00:21:38;5.75;;;2.00;;
74471;SDS011;62920;53.572;10.050;2023-03-29T00:24:04;7.45;;;2.15;;
74471;SDS011;62920;53.572;10.050;2023-03-29T00:26:30;4.95;;;2.10;;
74471;SDS011;62920;53.572;10.050;2023-03-29T00:28:55;6.32;;;1.75;;
74471;SDS011;62920;53.572;10.050;2023-03-29T00:31:21;5.05;;;1.80;;
74471;SDS011;62920;53.572;10.050;2023-03-29T00:33:46;8.40;;;1.80;;
74471;SDS011;62920;53.572;10.050;2023-03-29T00:36:13;4.43;;;1.67;;
74471;SDS011;62920;53.572;10.050;2023-03-29T00:38:40;5.63;;;1.98;;
74471;SDS011;62920;53.572;10.050;2023-03-29T00:41:05;6.85;;;2.03;;
74471;SDS011;62920;53.572;10.050;2023-03-29T00:46:54;6.72;;;2.35;;
74471;SDS011;62920;53.572;10.050;2023-03-29T00:49:19;5.85;;;2.00;;
74471;SDS011;62920;53.572;10.050;2023-03-29T00:51:45;6.28;;;2.08;;
74471;SDS011;62920;53.572;10.050;2023-03-29T00:54:12;7.57;;;1.83;;
74471;SDS011;62920;53.572;10.050;2023-03-29T00:56:39;6.30;;;1.95;;
74471;SDS011;62920;53.572;10.050;2023-03-29T00:59:16;5.88;;;2.22;;
74471;SDS011;62920;53.572;10.050;2023-03-29T01:01:59;6.45;;;2.15;;
74471;SDS011;62920;53.572;10.050;2023-03-29T01:04:27;7.07;;;1.90;;
74471;SDS011;62920;53.572;10.050;2023-03-29T01:09:41;5.35;;;1.73;;
74471;SDS011;62920;53.572;10.050;2023-03-29T01:12:20;5.53;;;1.90;;
74471;SDS011;62920;53.572;10.050;2023-03-29T01:14:49;4.72;;;1.88;;
74471;SDS011;62920;53.572;10.050;2023-03-29T01:17:17;5.63;;;1.70;;
74471;SDS011;62920;53.572;10.050;2023-03-29T01:19:48;4.95;;;1.85;;
74471;SDS011;62920;53.572;10.050;2023-03-29T01:30:28;8.55;;;2.05;;
74471;SDS011;62920;53.572;10.050;2023-03-29T01:33:01;5.75;;;2.25;;
74471;SDS011;62920;53.572;10.050;2023-03-29T01:35:43;7.68;;;1.95;;
74471;SDS011;62920;53.572;10.050;2023-03-29T01:38:20;5.03;;;1.80;;
74471;SDS011;62920;53.572;10.050;2023-03-29T01:40:48;8.20;;;2.20;;
74471;SDS011;62920;53.572;10.050;2023-03-29T01:43:27;6.10;;;2.20;;
74471;SDS011;62920;53.572;10.050;2023-03-29T01:46:04;8.52;;;2.25;;
74471;SDS011;62920;53.572;10.050;2023-03-29T01:49:06;5.20;;;2.00;;
74471;SDS011;62920;53.572;10.050;2023-03-29T01:51:38;4.75;;;1.80;;
74471;SDS011;62920;53.572;10.050;2023-03-29T01:54:08;9.00;;;2.33;;
74471;SDS011;62920;53.572;10.050;2023-03-29T01:56:45;7.07;;;2.05;;
74471;SDS011;62920;53.572;10.050;2023-03-29T01:59:14;6.43;;;1.95;;
74471;SDS011;62920;53.572;10.050;2023-03-29T02:01:44;5.85;;;2.10;;
74471;SDS011;62920;53.572;10.050;2023-03-29T02:04:13;11.13;;;2.30;;
74471;SDS011;62920;53.572;10.050;2023-03-29T02:06:41;5.78;;;2.15;;
74471;SDS011;62920;53.572;10.050;2023-03-29T02:09:07;8.75;;;2.00;;
74471;SDS011;62920;53.572;10.050;2023-03-29T02:11:33;6.65;;;1.85;;
74471;SDS011;62920;53.572;10.050;2023-03-29T02:13:59;5.03;;;1.55;;
74471;SDS011;62920;53.572;10.050;2023-03-29T02:16:25;9.15;;;1.60;;
74471;SDS011;62920;53.572;10.050;2023-03-29T02:18:50;5.10;;;1.50;;
74471;SDS011;62920;53.572;10.050;2023-03-29T02:21:22;6.90;;;1.98;;
74471;SDS011;62920;53.572;10.050;2023-03-29T02:23:52;9.10;;;1.85;;
74471;SDS011;62920;53.572;10.050;2023-03-29T02:26:19;5.55;;;1.63;;
74471;SDS011;62920;53.572;10.050;2023-03-29T02:28:46;6.38;;;1.88;;
74471;SDS011;62920;53.572;10.050;2023-03-29T02:31:14;5.43;;;1.83;;
74471;SDS011;62920;53.572;10.050;2023-03-29T02:36:26;7.82;;;1.88;;
74471;SDS011;62920;53.572;10.050;2023-03-29T02:38:54;6.82;;;1.83;;
74471;SDS011;62920;53.572;10.050;2023-03-29T02:41:21;4.88;;;1.65;;
74471;SDS011;62920;53.572;10.050;2023-03-29T02:43:47;5.40;;;1.48;;
74471;SDS011;62920;53.572;10.050;2023-03-29T02:46:14;7.00;;;1.90;;
74471;SDS011;62920;53.572;10.050;2023-03-29T02:48:40;5.13;;;1.67;;
74471;SDS011;62920;53.572;10.050;2023-03-29T02:51:08;7.30;;;1.77;;
74471;SDS011;62920;53.572;10.050;2023-03-29T02:53:39;4.43;;;1.45;;
74471;SDS011;62920;53.572;10.050;2023-03-29T02:56:06;4.95;;;1.35;;
74471;SDS011;62920;53.572;10.050;2023-03-29T02:58:32;2.90;;;1.27;;
74471;SDS011;62920;53.572;10.050;2023-03-29T03:01:00;5.70;;;1.50;;
74471;SDS011;62920;53.572;10.050;2023-03-29T03:03:26;8.57;;;1.85;;
74471;SDS011;62920;53.572;10.050;2023-03-29T03:05:51;8.15;;;1.70;;
74471;SDS011;62920;53.572;10.050;2023-03-29T03:08:17;7.68;;;1.90;;
74471;SDS011;62920;53.572;10.050;2023-03-29T03:10:43;6.38;;;1.45;;
74471;SDS011;62920;53.572;10.050;2023-03-29T03:13:09;7.35;;;2.00;;
74471;SDS011;62920;53.572;10.050;2023-03-29T03:15:35;6.05;;;2.10;;
74471;SDS011;62920;53.572;10.050;2023-03-29T03:18:01;5.40;;;1.77;;
74471;SDS011;62920;53.572;10.050;2023-03-29T03:20:27;7.25;;;1.70;;
74471;SDS011;62920;53.572;10.050;2023-03-29T03:22:53;9.30;;;1.88;;
74471;SDS011;62920;53.572;10.050;2023-03-29T03:25:21;9.35;;;1.90;;
74471;SDS011;62920;53.572;10.050;2023-03-29T03:27:48;7.32;;;1.85;;
74471;SDS011;62920;53.572;10.050;2023-03-29T03:30:14;4.32;;;1.80;;
74471;SDS011;62920;53.572;10.050;2023-03-29T03:32:40;6.38;;;1.60;;
74471;SDS011;62920;53.572;10.050;2023-03-29T03:37:33;4.45;;;1.40;;
74471;SDS011;62920;53.572;10.050;2023-03-29T03:39:59;9.13;;;2.17;;
74471;SDS011;62920;53.572;10.050;2023-03-29T03:42:28;7.25;;;2.33;;
74471;SDS011;62920;53.572;10.050;2023-03-29T03:44:53;8.00;;;2.05;;
74471;SDS011;62920;53.572;10.050;2023-03-29T03:47:19;5.65;;;2.00;;
74471;SDS011;62920;53.572;10.050;2023-03-29T03:49:45;7.72;;;1.70;;
74471;SDS011;62920;53.572;10.050;2023-03-29T03:52:10;8.50;;;2.10;;
74471;SDS011;62920;53.572;10.050;2023-03-29T03:54:36;4.78;;;1.77;;
74471;SDS011;62920;53.572;10.050;2023-03-29T03:57:02;5.60;;;1.65;;
74471;SDS011;62920;53.572;10.050;2023-03-29T03:59:27;8.48;;;1.83;;
74471;SDS011;62920;53.572;10.050;2023-03-29T04:01:53;8.63;;;1.88;;
74471;SDS011;62920;53.572;10.050;2023-03-29T04:04:18;5.50;;;1.77;;
74471;SDS011;62920;53.572;10.050;2023-03-29T04:06:44;9.18;;;1.80;;
74471;SDS011;62920;53.572;10.050;2023-03-29T04:09:09;6.15;;;1.88;;
74471;SDS011;62920;53.572;10.050;2023-03-29T04:11:35;6.47;;;1.88;;
74471;SDS011;62920;53.572;10.050;2023-03-29T04:14:01;8.77;;;2.28;;
74471;SDS011;62920;53.572;10.050;2023-03-29T04:16:27;7.43;;;2.28;;
74471;SDS011;62920;53.572;10.050;2023-03-29T04:18:52;8.05;;;1.90;;
74471;SDS011;62920;53.572;10.050;2023-03-29T04:21:17;5.47;;;1.73;;
74471;SDS011;62920;53.572;10.050;2023-03-29T04:23:43;8.00;;;1.95;;
74471;SDS011;62920;53.572;10.050;2023-03-29T04:26:10;6.50;;;2.05;;
74471;SDS011;62920;53.572;10.050;2023-03-29T04:28:37;5.88;;;2.10;;
74471;SDS011;62920;53.572;10.050;2023-03-29T04:31:03;8.75;;;2.40;;
74471;SDS011;62920;53.572;10.050;2023-03-29T04:33:29;8.25;;;2.05;;
74471;SDS011;62920;53.572;10.050;2023-03-29T04:35:54;6.50;;;2.20;;
74471;SDS011;62920;53.572;10.050;2023-03-29T04:38:20;9.10;;;2.22;;
74471;SDS011;62920;53.572;10.050;2023-03-29T04:40:50;7.05;;;2.20;;
74471;SDS011;62920;53.572;10.050;2023-03-29T04:43:16;7.10;;;2.22;;
74471;SDS011;62920;53.572;10.050;2023-03-29T04:45:41;4.93;;;1.67;;
74471;SDS011;62920;53.572;10.050;2023-03-29T04:48:07;5.40;;;2.13;;
74471;SDS011;62920;53.572;10.050;2023-03-29T04:50:32;5.22;;;2.03;;
74471;SDS011;62920;53.572;10.050;2023-03-29T04:53:00;5.78;;;2.55;;
74471;SDS011;62920;53.572;10.050;2023-03-29T04:55:25;9.30;;;2.60;;
74471;SDS011;62920;53.572;10.050;2023-03-29T04:57:51;6.15;;;2.38;;
74471;SDS011;62920;53.572;10.050;2023-03-29T05:00:17;6.63;;;2.47;;
74471;SDS011;62920;53.572;10.050;2023-03-29T05:02:44;4.50;;;2.13;;
74471;SDS011;62920;53.572;10.050;2023-03-29T05:05:10;15.65;;;3.40;;
74471;SDS011;62920;53.572;10.050;2023-03-29T05:07:36;6.97;;;3.08;;
74471;SDS011;62920;53.572;10.050;2023-03-29T05:10:01;6.80;;;2.95;;
74471;SDS011;62920;53.572;10.050;2023-03-29T05:12:27;7.88;;;2.75;;
74471;SDS011;62920;53.572;10.050;2023-03-29T05:14:52;6.20;;;2.58;;
74471;SDS011;62920;53.572;10.050;2023-03-29T05:17:18;7.93;;;3.00;;
74471;SDS011;62920;53.572;10.050;2023-03-29T05:19:44;7.85;;;2.65;;
74471;SDS011;62920;53.572;10.050;2023-03-29T05:22:09;8.63;;;2.80;;
74471;SDS011;62920;53.572;10.050;2023-03-29T05:24:35;11.43;;;3.28;;
74471;SDS011;62920;53.572;10.050;2023-03-29T05:27:01;8.73;;;3.15;;
74471;SDS011;62920;53.572;10.050;2023-03-29T05:29:27;14.00;;;3.08;;
74471;SDS011;62920;53.572;10.050;2023-03-29T05:31:52;11.02;;;3.15;;
74471;SDS011;62920;53.572;10.050;2023-03-29T05:34:18;14.35;;;3.63;;
74471;SDS011;62920;53.572;10.050;2023-03-29T05:36:44;7.47;;;3.08;;
74471;SDS011;62920;53.572;10.050;2023-03-29T05:39:09;11.57;;;3.63;;
74471;SDS011;62920;53.572;10.050;2023-03-29T05:41:35;19.67;;;3.80;;
74471;SDS011;62920;53.572;10.050;2023-03-29T05:44:00;9.80;;;3.78;;
74471;SDS011;62920;53.572;10.050;2023-03-29T05:46:26;12.20;;;3.58;;
74471;SDS011;62920;53.572;10.050;2023-03-29T05:48:51;9.20;;;3.67;;
74471;SDS011;62920;53.572;10.050;2023-03-29T05:51:17;7.53;;;3.63;;
74471;SDS011;62920;53.572;10.050;2023-03-29T05:53:48;12.02;;;3.80;;
74471;SDS011;62920;53.572;10.050;2023-03-29T05:56:14;14.35;;;4.10;;
74471;SDS011;62920;53.572;10.050;2023-03-29T05:58:40;11.65;;;3.35;;
74471;SDS011;62920;53.572;10.050;2023-03-29T06:01:09;11.63;;;3.70;;
74471;SDS011;62920;53.572;10.050;2023-03-29T06:03:35;8.88;;;4.03;;
74471;SDS011;62920;53.572;10.050;2023-03-29T06:06:01;8.55;;;3.80;;
74471;SDS011;62920;53.572;10.050;2023-03-29T06:10:56;7.22;;;3.78;;
74471;SDS011;62920;53.572;10.050;2023-03-29T06:15:52;7.22;;;3.60;;
74471;SDS011;62920;53.572;10.050;2023-03-29T06:18:17;11.68;;;4.28;;
74471;SDS011;62920;53.572;10.050;2023-03-29T06:20:46;7.85;;;3.47;;
74471;SDS011;62920;53.572;10.050;2023-03-29T06:23:13;8.82;;;3.90;;
74471;SDS011;62920;53.572;10.050;2023-03-29T06:25:39;15.05;;;4.22;;
74471;SDS011;62920;53.572;10.050;2023-03-29T06:28:04;8.63;;;3.75;;
74471;SDS011;62920;53.572;10.050;2023-03-29T06:30:30;12.38;;;3.65;;
74471;SDS011;62920;53.572;10.050;2023-03-29T06:32:57;9.60;;;4.57;;
74471;SDS011;62920;53.572;10.050;2023-03-29T06:35:23;7.55;;;4.00;;
74471;SDS011;62920;53.572;10.050;2023-03-29T06:37:48;10.55;;;4.45;;
74471;SDS011;62920;53.572;10.050;2023-03-29T06:40:17;10.93;;;4.10;;
74471;SDS011;62920;53.572;10.050;2023-03-29T06:42:43;13.20;;;4.13;;
74471;SDS011;62920;53.572;10.050;2023-03-29T06:45:10;7.47;;;3.83;;
74471;SDS011;62920;53.572;10.050;2023-03-29T06:47:35;8.10;;;3.58;;
74471;SDS011;62920;53.572;10.050;2023-03-29T06:50:00;9.15;;;3.85;;
74471;SDS011;62920;53.572;10.050;2023-03-29T06:52:26;12.15;;;4.53;;
74471;SDS011;62920;53.572;10.050;2023-03-29T06:54:51;9.20;;;3.75;;
74471;SDS011;62920;53.572;10.050;2023-03-29T06:57:17;10.98;;;3.67;;
74471;SDS011;62920;53.572;10.050;2023-03-29T06:59:42;12.10;;;3.90;;
74471;SDS011;62920;53.572;10.050;2023-03-29T07:02:08;11.10;;;3.80;;
74471;SDS011;62920;53.572;10.050;2023-03-29T07:04:36;11.98;;;4.20;;
74471;SDS011;62920;53.572;10.050;2023-03-29T07:07:02;7.63;;;3.53;;
74471;SDS011;62920;53.572;10.050;2023-03-29T07:09:28;11.20;;;4.30;;
74471;SDS011;62920;53.572;10.050;2023-03-29T07:11:56;9.02;;;4.30;;
74471;SDS011;62920;53.572;10.050;2023-03-29T07:14:22;8.82;;;3.65;;
74471;SDS011;62920;53.572;10.050;2023-03-29T07:16:52;8.93;;;4.00;;
74471;SDS011;62920;53.572;10.050;2023-03-29T07:19:19;8.30;;;3.60;;
74471;SDS011;62920;53.572;10.050;2023-03-29T07:21:46;6.20;;;3.55;;
74471;SDS011;62920;53.572;10.050;2023-03-29T07:24:12;8.02;;;3.95;;
74471;SDS011;62920;53.572;10.050;2023-03-29T07:26:37;10.30;;;3.83;;
74471;SDS011;62920;53.572;10.050;2023-03-29T07:29:03;11.77;;;4.30;;
74471;SDS011;62920;53.572;10.050;2023-03-29T07:31:28;10.07;;;4.05;;
74471;SDS011;62920;53.572;10.050;2023-03-29T07:33:54;7.43;;;3.97;;
74471;SDS011;62920;53.572;10.050;2023-03-29T07:36:20;7.65;;;3.72;;
74471;SDS011;62920;53.572;10.050;2023-03-29T07:38:45;8.63;;;4.00;;
74471;SDS011;62920;53.572;10.050;2023-03-29T07:41:12;14.43;;;3.85;;
74471;SDS011;62920;53.572;10.050;2023-03-29T07:43:37;11.50;;;4.05;;
74471;SDS011;62920;53.572;10.050;2023-03-29T07:46:03;10.68;;;4.22;;
74471;SDS011;62920;53.572;10.050;2023-03-29T07:48:29;8.43;;;3.78;;
74471;SDS011;62920;53.572;10.050;2023-03-29T07:50:55;8.98;;;3.72;;
74471;SDS011;62920;53.572;10.050;2023-03-29T07:53:21;12.02;;;3.47;;
74471;SDS011;62920;53.572;10.050;2023-03-29T07:55:47;7.03;;;3.70;;
74471;SDS011;62920;53.572;10.050;2023-03-29T07:58:14;10.52;;;3.67;;
74471;SDS011;62920;53.572;10.050;2023-03-29T08:00:40;6.75;;;3.90;;
74471;SDS011;62920;53.572;10.050;2023-03-29T08:03:05;6.95;;;4.00;;
74471;SDS011;62920;53.572;10.050;2023-03-29T08:05:31;9.00;;;3.53;;
74471;SDS011;62920;53.572;10.050;2023-03-29T08:07:56;9.55;;;3.42;;
74471;SDS011;62920;53.572;10.050;2023-03-29T08:10:22;8.25;;;3.13;;
74471;SDS011;62920;53.572;10.050;2023-03-29T08:12:49;8.93;;;3.65;;
74471;SDS011;62920;53.572;10.050;2023-03-29T08:15:16;9.52;;;4.25;;
74471;SDS011;62920;53.572;10.050;2023-03-29T08:17:42;8.13;;;3.60;;
74471;SDS011;62920;53.572;10.050;2023-03-29T08:20:08;12.57;;;3.28;;
74471;SDS011;62920;53.572;10.050;2023-03-29T08:22:36;7.68;;;3.25;;
74471;SDS011;62920;53.572;10.050;2023-03-29T08:25:02;9.27;;;3.25;;
74471;SDS011;62920;53.572;10.050;2023-03-29T08:27:28;7.28;;;3.63;;
74471;SDS011;62920;53.572;10.050;2023-03-29T08:29:54;8.80;;;3.83;;
74471;SDS011;62920;53.572;10.050;2023-03-29T08:32:19;6.95;;;3.20;;
74471;SDS011;62920;53.572;10.050;2023-03-29T08:34:45;9.35;;;3.30;;
74471;SDS011;62920;53.572;10.050;2023-03-29T08:37:11;7.75;;;3.38;;
74471;SDS011;62920;53.572;10.050;2023-03-29T08:39:36;7.68;;;3.60;;
74471;SDS011;62920;53.572;10.050;2023-03-29T08:44:58;9.57;;;3.53;;
74471;SDS011;62920;53.572;10.050;2023-03-29T08:49:57;7.70;;;3.10;;
74471;SDS011;62920;53.572;10.050;2023-03-29T08:55:44;11.35;;;3.17;;
74471;SDS011;62920;53.572;10.050;2023-03-29T08:58:03;9.07;;;3.50;;
74471;SDS011;62920;53.572;10.050;2023-03-29T09:00:39;10.45;;;2.92;;
74471;SDS011;62920;53.572;10.050;2023-03-29T09:05:48;9.80;;;3.15;;
74471;SDS011;62920;53.572;10.050;2023-03-29T09:08:18;9.27;;;3.25;;
74471;SDS011;62920;53.572;10.050;2023-03-29T09:10:49;12.52;;;3.00;;
74471;SDS011;62920;53.572;10.050;2023-03-29T09:13:31;7.25;;;2.90;;
74471;SDS011;62920;53.572;10.050;2023-03-29T09:16:11;9.88;;;3.05;;
74471;SDS011;62920;53.572;10.050;2023-03-29T09:21:16;5.78;;;2.95;;
74471;SDS011;62920;53.572;10.050;2023-03-29T09:32:11;7.90;;;3.25;;
74471;SDS011;62920;53.572;10.050;2023-03-29T09:34:47;10.07;;;2.90;;
74471;SDS011;62920;53.572;10.050;2023-03-29T09:37:24;6.47;;;2.90;;
74471;SDS011;62920;53.572;10.050;2023-03-29T09:39:54;7.07;;;3.05;;
74471;SDS011;62920;53.572;10.050;2023-03-29T09:42:21;6.30;;;2.97;;
74471;SDS011;62920;53.572;10.050;2023-03-29T09:44:49;6.80;;;3.10;;
74471;SDS011;62920;53.572;10.050;2023-03-29T09:49:45;6.72;;;2.75;;
74471;SDS011;62920;53.572;10.050;2023-03-29T09:52:13;6.85;;;3.20;;
74471;SDS011;62920;53.572;10.050;2023-03-29T09:54:40;6.07;;;3.45;;
74471;SDS011;62920;53.572;10.050;2023-03-29T09:57:08;7.13;;;3.03;;
74471;SDS011;62920;53.572;10.050;2023-03-29T09:59:35;7.40;;;3.33;;
74471;SDS011;62920;53.572;10.050;2023-03-29T10:02:08;11.00;;;3.22;;
74471;SDS011;62920;53.572;10.050;2023-03-29T10:04:35;6.13;;;2.78;;
74471;SDS011;62920;53.572;10.050;2023-03-29T10:07:02;7.18;;;2.92;;
74471;SDS011;62920;53.572;10.050;2023-03-29T10:09:28;6.45;;;3.25;;
74471;SDS011;62920;53.572;10.050;2023-03-29T10:11:58;7.75;;;3.00;;
74471;SDS011;62920;53.572;10.050;2023-03-29T10:17:03;7.35;;;3.30;;
74471;SDS011;62920;53.572;10.050;2023-03-29T10:19:34;6.18;;;3.10;;
74471;SDS011;62920;53.572;10.050;2023-03-29T10:22:01;7.50;;;3.00;;
74471;SDS011;62920;53.572;10.050;2023-03-29T10:24:29;7.78;;;2.80;;
74471;SDS011;62920;53.572;10.050;2023-03-29T10:26:59;7.05;;;2.75;;
74471;SDS011;62920;53.572;10.050;2023-03-29T10:29:26;5.88;;;3.13;;
74471;SDS011;62920;53.572;10.050;2023-03-29T10:32:00;5.97;;;3.20;;
74471;SDS011;62920;53.572;10.050;2023-03-29T10:34:26;8.32;;;3.42;;
74471;SDS011;62920;53.572;10.050;2023-03-29T10:36:58;5.65;;;2.75;;
74471;SDS011;62920;53.572;10.050;2023-03-29T10:41:51;9.38;;;3.40;;
74471;SDS011;62920;53.572;10.050;2023-03-29T10:44:30;8.10;;;3.35;;
74471;SDS011;62920;53.572;10.050;2023-03-29T10:47:07;8.27;;;3.40;;
74471;SDS011;62920;53.572;10.050;2023-03-29T10:49:42;6.60;;;3.53;;
74471;SDS011;62920;53.572;10.050;2023-03-29T10:52:12;7.32;;;3.70;;
74471;SDS011;62920;53.572;10.050;2023-03-29T10:54:38;6.53;;;3.40;;
74471;SDS011;62920;53.572;10.050;2023-03-29T10:57:04;9.55;;;3.47;;
74471;SDS011;62920;53.572;10.050;2023-03-29T11:15:59;9.27;;;3.67;;
74471;SDS011;62920;53.572;10.050;2023-03-29T11:26:36;7.03;;;3.33;;
74471;SDS011;62920;53.572;10.050;2023-03-29T11:39:50;11.07;;;3.80;;
74471;SDS011;62920;53.572;10.050;2023-03-29T11:42:24;7.03;;;3.88;;
74471;SDS011;62920;53.572;10.050;2023-03-29T11:44:53;9.40;;;3.88;;
74471;SDS011;62920;53.572;10.050;2023-03-29T11:47:20;7.35;;;3.50;;
74471;SDS011;62920;53.572;10.050;2023-03-29T11:50:23;6.93;;;3.72;;
74471;SDS011;62920;53.572;10.050;2023-03-29T11:55:22;11.98;;;4.28;;
74471;SDS011;62920;53.572;10.050;2023-03-29T11:57:51;9.65;;;4.03;;
74471;SDS011;62920;53.572;10.050;2023-03-29T12:00:19;8.60;;;4.28;;
74471;SDS011;62920;53.572;10.050;2023-03-29T12:10:23;7.53;;;3.97;;
74471;SDS011;62920;53.572;10.050;2023-03-29T12:12:57;9.48;;;4.80;;
74471;SDS011;62920;53.572;10.050;2023-03-29T12:15:25;8.27;;;4.18;;
74471;SDS011;62920;53.572;10.050;2023-03-29T12:20:47;8.40;;;4.18;;
74471;SDS011;62920;53.572;10.050;2023-03-29T12:23:15;11.23;;;4.20;;
74471;SDS011;62920;53.572;10.050;2023-03-29T12:28:32;13.43;;;4.82;;
74471;SDS011;62920;53.572;10.050;2023-03-29T12:39:46;10.50;;;5.53;;
74471;SDS011;62920;53.572;10.050;2023-03-29T12:44:48;10.73;;;4.97;;
74471;SDS011;62920;53.572;10.050;2023-03-29T12:47:21;8.43;;;4.47;;
74471;SDS011;62920;53.572;10.050;2023-03-29T12:49:51;11.32;;;4.60;;
74471;SDS011;62920;53.572;10.050;2023-03-29T12:54:56;8.43;;;4.90;;
74471;SDS011;62920;53.572;10.050;2023-03-29T12:57:37;11.82;;;4.68;;
74471;SDS011;62920;53.572;10.050;2023-03-29T13:00:54;9.02;;;4.80;;
74471;SDS011;62920;53.572;10.050;2023-03-29T13:02:59;9.93;;;5.13;;
74471;SDS011;62920;53.572;10.050;2023-03-29T13:05:34;8.27;;;4.85;;
74471;SDS011;62920;53.572;10.050;2023-03-29T13:08:18;8.40;;;4.40;;
74471;SDS011;62920;53.572;10.050;2023-03-29T13:10:51;8.98;;;4.60;;
74471;SDS011;62920;53.572;10.050;2023-03-29T13:13:20;7.85;;;4.20;;
74471;SDS011;62920;53.572;10.050;2023-03-29T13:15:48;8.13;;;4.35;;
74471;SDS011;62920;53.572;10.050;2023-03-29T13:23:23;10.52;;;4.57;;
74471;SDS011;62920;53.572;10.050;2023-03-29T13:34:44;9.00;;;4.53;;
74471;SDS011;62920;53.572;10.050;2023-03-29T13:42:56;8.48;;;4.78;;
74471;SDS011;62920;53.572;10.050;2023-03-29T13:45:27;8.82;;;4.85;;
74471;SDS011;62920;53.572;10.050;2023-03-29T13:48:01;8.45;;;4.60;;
74471;SDS011;62920;53.572;10.050;2023-03-29T13:53:31;9.07;;;4.75;;
74471;SDS011;62920;53.572;10.050;2023-03-29T13:55:59;10.15;;;5.43;;
74471;SDS011;62920;53.572;10.050;2023-03-29T14:00:54;8.77;;;4.60;;
74471;SDS011;62920;53.572;10.050;2023-03-29T14:03:25;9.55;;;4.65;;
74471;SDS011;62920;53.572;10.050;2023-03-29T14:05:58;8.43;;;4.80;;
74471;SDS011;62920;53.572;10.050;2023-03-29T14:08:32;9.27;;;4.88;;
74471;SDS011;62920;53.572;10.050;2023-03-29T14:13:29;8.55;;;5.18;;
74471;SDS011;62920;53.572;10.050;2023-03-29T14:16:02;9.77;;;5.25;;
74471;SDS011;62920;53.572;10.050;2023-03-29T14:18:35;10.57;;;4.88;;
74471;SDS011;62920;53.572;10.050;2023-03-29T14:21:02;8.48;;;5.00;;
74471;SDS011;62920;53.572;10.050;2023-03-29T14:23:28;10.75;;;4.32;;
74471;SDS011;62920;53.572;10.050;2023-03-29T14:26:03;7.15;;;4.30;;
74471;SDS011;62920;53.572;10.050;2023-03-29T14:28:30;8.60;;;4.88;;
74471;SDS011;62920;53.572;10.050;2023-03-29T14:30:56;7.72;;;4.47;;
74471;SDS011;62920;53.572;10.050;2023-03-29T14:33:22;9.75;;;4.60;;
74471;SDS011;62920;53.572;10.050;2023-03-29T14:35:53;8.90;;;4.47;;
74471;SDS011;62920;53.572;10.050;2023-03-29T14:38:19;8.18;;;4.43;;
74471;SDS011;62920;53.572;10.050;2023-03-29T14:40:46;8.05;;;4.53;;
74471;SDS011;62920;53.572;10.050;2023-03-29T14:43:12;9.57;;;4.78;;
74471;SDS011;62920;53.572;10.050;2023-03-29T14:45:42;8.95;;;4.53;;
74471;SDS011;62920;53.572;10.050;2023-03-29T14:48:08;9.18;;;4.80;;
74471;SDS011;62920;53.572;10.050;2023-03-29T14:50:36;7.88;;;4.65;;
74471;SDS011;62920;53.572;10.050;2023-03-29T14:53:01;7.85;;;4.78;;
74471;SDS011;62920;53.572;10.050;2023-03-29T14:55:30;9.55;;;5.03;;
74471;SDS011;62920;53.572;10.050;2023-03-29T14:57:56;7.15;;;5.10;;
74471;SDS011;62920;53.572;10.050;2023-03-29T15:05:30;7.80;;;4.43;;
74471;SDS011;62920;53.572;10.050;2023-03-29T15:07:59;8.77;;;4.90;;
74471;SDS011;62920;53.572;10.050;2023-03-29T15:10:25;8.23;;;4.97;;
74471;SDS011;62920;53.572;10.050;2023-03-29T15:12:51;11.30;;;4.88;;
74471;SDS011;62920;53.572;10.050;2023-03-29T15:15:17;8.35;;;5.13;;
74471;SDS011;62920;53.572;10.050;2023-03-29T15:17:43;10.48;;;5.90;;
74471;SDS011;62920;53.572;10.050;2023-03-29T15:20:17;7.53;;;4.72;;
74471;SDS011;62920;53.572;10.050;2023-03-29T15:23:00;9.35;;;5.10;;
74471;SDS011;62920;53.572;10.050;2023-03-29T15:25:27;8.88;;;5.45;;
74471;SDS011;62920;53.572;10.050;2023-03-29T15:28:00;9.98;;;5.43;;
74471;SDS011;62920;53.572;10.050;2023-03-29T15:30:33;9.30;;;5.50;;
74471;SDS011;62920;53.572;10.050;2023-03-29T15:33:13;9.13;;;5.47;;
74471;SDS011;62920;53.572;10.050;2023-03-29T15:35:40;8.85;;;5.50;;
74471;SDS011;62920;53.572;10.050;2023-03-29T15:38:08;9.75;;;5.80;;
74471;SDS011;62920;53.572;10.050;2023-03-29T15:40:35;9.68;;;5.40;;
74471;SDS011;62920;53.572;10.050;2023-03-29T15:43:01;10.43;;;6.07;;
74471;SDS011;62920;53.572;10.050;2023-03-29T15:45:26;12.32;;;6.47;;
74471;SDS011;62920;53.572;10.050;2023-03-29T15:47:51;9.27;;;5.43;;
74471;SDS011;62920;53.572;10.050;2023-03-29T15:50:17;11.35;;;5.38;;
74471;SDS011;62920;53.572;10.050;2023-03-29T15:52:43;10.48;;;5.93;;
74471;SDS011;62920;53.572;10.050;2023-03-29T15:55:08;12.32;;;6.47;;
74471;SDS011;62920;53.572;10.050;2023-03-29T15:57:34;9.32;;;5.47;;
74471;SDS011;62920;53.572;10.050;2023-03-29T16:00:00;9.93;;;5.68;;
74471;SDS011;62920;53.572;10.050;2023-03-29T16:04:52;17.23;;;6.05;;
74471;SDS011;62920;53.572;10.050;2023-03-29T16:07:17;11.70;;;6.20;;
74471;SDS011;62920;53.572;10.050;2023-03-29T16:09:44;10.02;;;6.00;;
74471;SDS011;62920;53.572;10.050;2023-03-29T16:12:10;10.63;;;6.15;;
74471;SDS011;62920;53.572;10.050;2023-03-29T16:14:36;10.57;;;6.30;;
74471;SDS011;62920;53.572;10.050;2023-03-29T16:17:02;11.45;;;6.00;;
74471;SDS011;62920;53.572;10.050;2023-03-29T16:19:29;9.35;;;5.50;;
74471;SDS011;62920;53.572;10.050;2023-03-29T16:21:55;11.25;;;6.50;;
74471;SDS011;62920;53.572;10.050;2023-03-29T16:24:22;14.07;;;6.82;;
74471;SDS011;62920;53.572;10.050;2023-03-29T16:26:49;13.18;;;5.93;;
74471;SDS011;62920;53.572;10.050;2023-03-29T16:29:16;15.68;;;6.80;;
74471;SDS011;62920;53.572;10.050;2023-03-29T16:31:42;13.73;;;6.72;;
74471;SDS011;62920;53.572;10.050;2023-03-29T16:34:08;10.07;;;6.47;;
74471;SDS011;62920;53.572;10.050;2023-03-29T16:39:00;11.98;;;6.70;;
74471;SDS011;62920;53.572;10.050;2023-03-29T16:41:27;10.13;;;6.45;;
74471;SDS011;62920;53.572;10.050;2023-03-29T16:43:52;11.85;;;6.95;;
74471;SDS011;62920;53.572;10.050;2023-03-29T16:46:17;11.77;;;6.65;;
74471;SDS011;62920;53.572;10.050;2023-03-29T16:48:43;10.27;;;7.25;;
74471;SDS011;62920;53.572;10.050;2023-03-29T16:51:09;13.98;;;7.25;;
74471;SDS011;62920;53.572;10.050;2023-03-29T16:53:34;14.15;;;7.63;;
74471;SDS011;62920;53.572;10.050;2023-03-29T16:56:01;16.67;;;7.80;;
74471;SDS011;62920;53.572;10.050;2023-03-29T16:58:27;11.88;;;6.88;;
74471;SDS011;62920;53.572;10.050;2023-03-29T17:00:53;12.60;;;7.30;;
74471;SDS011;62920;53.572;10.050;2023-03-29T17:03:20;15.45;;;7.53;;
74471;SDS011;62920;53.572;10.050;2023-03-29T17:05:48;13.30;;;7.05;;
74471;SDS011;62920;53.572;10.050;2023-03-29T17:08:16;13.88;;;6.70;;
74471;SDS011;62920;53.572;10.050;2023-03-29T17:10:42;10.07;;;6.72;;
74471;SDS011;62920;53.572;10.050;2023-03-29T17:13:08;17.13;;;7.15;;